Time;durP1;ratioP1;P1;durP2;ratioP2;P2;SDS_P1;SDS_P2;PMS_P1;PMS_P2;Temp;Humidity;BMP_temperature;BMP_pressure;BME280_temperature;BME280_humidity;BME280_pressure;Samples;Min_cycle;Max_cycle;Signal;HPM_P1;HPM_P2
2022/06/24 00:00:17;;;;;;;3.03;2.70;;;19.40;99.90;;;;;;4991498;28;20476;-85
2022/06/24 00:02:48;;;;;;;3.85;2.55;;;19.40;99.90;;;;;;4988858;28;20748;-85
2022/06/24 00:05:14;;;;;;;4.45;2.47;;;19.30;99.90;;;;;;4990318;28;20385;-83
2022/06/24 00:07:49;;;;;;;4.45;2.53;;;19.30;99.90;;;;;;4990745;28;20472;-85
2022/06/24 00:10:18;;;;;;;3.15;2.60;;;19.30;99.90;;;;;;4990226;28;20898;-85
2022/06/24 00:12:48;;;;;;;3.28;2.60;;;19.20;99.90;;;;;;4993303;28;20377;-85
2022/06/24 00:15:14;;;;;;;2.65;2.42;;;19.30;99.90;;;;;;4990007;28;20376;-85
2022/06/24 00:17:41;;;;;;;3.28;2.60;;;19.20;99.90;;;;;;4990406;28;20403;-86
2022/06/24 00:20:09;;;;;;;4.25;2.53;;;19.20;99.90;;;;;;4992944;28;20416;-85
2022/06/24 00:22:44;;;;;;;3.20;2.47;;;19.10;99.90;;;;;;4993993;28;20393;-86
2022/06/24 00:25:13;;;;;;;4.38;2.85;;;19.10;99.90;;;;;;4992382;28;20448;-84
2022/06/24 00:27:41;;;;;;;3.70;2.58;;;19.00;99.90;;;;;;4991813;28;20377;-85
2022/06/24 00:30:12;;;;;;;3.35;2.78;;;19.00;99.90;;;;;;4989088;28;20420;-86
2022/06/24 00:32:38;;;;;;;2.72;2.30;;;19.00;99.90;;;;;;4990727;28;20419;-86
2022/06/24 00:35:07;;;;;;;3.10;2.70;;;18.90;99.90;;;;;;4989865;28;20412;-86
2022/06/24 00:37:33;;;;;;;3.33;2.47;;;18.90;99.90;;;;;;4991011;28;20472;-84
2022/06/24 00:40:21;;;;;;;3.28;2.97;;;18.90;99.90;;;;;;4990504;28;20385;-86
2022/06/24 00:42:48;;;;;;;4.20;3.17;;;18.90;99.90;;;;;;4988569;28;20408;-85
2022/06/24 00:45:40;;;;;;;2.83;2.58;;;18.80;99.90;;;;;;4989322;28;20795;-87
2022/06/24 00:48:14;;;;;;;3.58;2.75;;;18.80;99.90;;;;;;4991094;28;20482;-86
2022/06/24 00:50:44;;;;;;;4.50;2.60;;;18.80;99.90;;;;;;4992673;28;20398;-87
2022/06/24 00:53:09;;;;;;;4.18;3.15;;;18.80;99.90;;;;;;4993281;28;20384;-86
2022/06/24 00:55:37;;;;;;;2.78;2.58;;;18.80;99.90;;;;;;4993463;28;20389;-86
2022/06/24 00:58:04;;;;;;;3.47;3.05;;;18.70;99.90;;;;;;4993205;28;20385;-86
2022/06/24 01:00:33;;;;;;;4.15;2.85;;;18.70;99.90;;;;;;4992278;28;20377;-86
2022/06/24 01:03:01;;;;;;;3.95;2.88;;;18.70;99.90;;;;;;4992871;28;20423;-86
2022/06/24 01:05:28;;;;;;;3.35;2.80;;;18.60;99.90;;;;;;4994513;28;20810;-86
2022/06/24 01:07:54;;;;;;;3.30;3.00;;;18.60;99.90;;;;;;4993254;28;20377;-85
2022/06/24 01:10:20;;;;;;;3.77;2.77;;;18.50;99.90;;;;;;4992722;28;20759;-85
2022/06/24 01:12:46;;;;;;;4.90;2.85;;;18.40;99.90;;;;;;4994096;28;20936;-85
2022/06/24 01:15:12;;;;;;;4.60;3.08;;;18.40;99.90;;;;;;4995071;28;20396;-85
2022/06/24 01:17:37;;;;;;;3.17;2.83;;;18.30;99.90;;;;;;4993481;28;20428;-85
2022/06/24 01:20:05;;;;;;;4.13;2.60;;;18.20;99.90;;;;;;4992370;28;20395;-85
2022/06/24 01:22:32;;;;;;;3.30;3.00;;;18.20;99.90;;;;;;4991571;28;20392;-85
2022/06/24 01:24:59;;;;;;;3.90;3.05;;;18.10;99.90;;;;;;4992290;28;20403;-84
2022/06/24 01:27:24;;;;;;;4.80;3.15;;;18.10;99.90;;;;;;4991995;28;20412;-86
2022/06/24 01:29:50;;;;;;;3.70;2.90;;;18.20;99.90;;;;;;4991927;28;20413;-85
2022/06/24 01:32:16;;;;;;;3.45;2.80;;;18.20;99.90;;;;;;4993256;28;20427;-86
2022/06/24 01:34:41;;;;;;;3.57;3.10;;;18.20;99.90;;;;;;4993501;28;20797;-85
2022/06/24 01:37:07;;;;;;;3.08;2.65;;;18.10;99.90;;;;;;4993180;28;20412;-87
2022/06/24 01:39:33;;;;;;;4.75;3.17;;;18.00;99.90;;;;;;4992918;28;20806;-85
2022/06/24 01:41:59;;;;;;;3.13;2.93;;;18.00;99.90;;;;;;4992062;28;20434;-86
2022/06/24 01:44:26;;;;;;;3.80;3.20;;;18.00;99.90;;;;;;4991614;28;20763;-86
2022/06/24 01:46:52;;;;;;;4.50;3.60;;;17.90;99.90;;;;;;4994114;28;20684;-85
2022/06/24 01:49:18;;;;;;;3.70;3.30;;;17.90;99.90;;;;;;4991317;28;20503;-85
2022/06/24 01:51:46;;;;;;;3.63;3.30;;;17.90;99.90;;;;;;4990877;28;20612;-85
2022/06/24 01:54:12;;;;;;;4.47;3.20;;;17.80;99.90;;;;;;4992868;28;20381;-86
2022/06/24 01:56:38;;;;;;;6.53;3.30;;;17.80;99.90;;;;;;4993255;28;20600;-85
2022/06/24 01:59:04;;;;;;;4.22;3.25;;;17.70;99.90;;;;;;4991783;28;20389;-86
2022/06/24 02:01:30;;;;;;;3.40;2.93;;;17.70;99.90;;;;;;4992378;28;20389;-86
2022/06/24 02:03:55;;;;;;;3.63;2.90;;;17.60;99.90;;;;;;4992198;28;20480;-86
2022/06/24 02:06:21;;;;;;;4.13;3.17;;;17.60;99.90;;;;;;4990771;28;20475;-86
2022/06/24 02:08:48;;;;;;;3.50;3.20;;;;;;;;;;4991878;28;20404;-85
2022/06/24 02:13:59;;;;;;;3.67;3.38;;;17.50;99.90;;;;;;4992826;28;20886;-87
2022/06/24 02:16:26;;;;;;;4.15;3.58;;;17.40;99.90;;;;;;4992308;28;20905;-84
2022/06/24 02:18:55;;;;;;;4.30;3.50;;;17.30;99.90;;;;;;4990791;28;20408;-84
2022/06/24 02:21:22;;;;;;;4.13;3.40;;;17.30;99.90;;;;;;4991029;28;20369;-85
2022/06/24 02:23:48;;;;;;;3.80;3.40;;;17.30;99.90;;;;;;4991155;28;20755;-85
2022/06/24 02:26:14;;;;;;;4.20;3.70;;;17.20;99.90;;;;;;4991555;28;20395;-85
2022/06/24 02:28:40;;;;;;;4.30;3.50;;;17.10;99.90;;;;;;4990249;28;20405;-86
2022/06/24 02:31:05;;;;;;;4.70;3.83;;;17.00;99.90;;;;;;4990524;28;20393;-85
2022/06/24 02:33:31;;;;;;;3.65;3.35;;;16.90;99.90;;;;;;4992247;28;20412;-85
2022/06/24 02:35:57;;;;;;;4.13;3.73;;;16.90;99.90;;;;;;4991932;28;20381;-86
2022/06/24 02:38:23;;;;;;;4.38;3.80;;;16.80;99.90;;;;;;4991192;28;20435;-86
2022/06/24 02:40:49;;;;;;;5.10;4.00;;;16.80;99.90;;;;;;4990030;28;20428;-85
2022/06/24 02:43:16;;;;;;;6.40;4.30;;;16.80;99.90;;;;;;4991458;28;20401;-85
2022/06/24 02:45:42;;;;;;;5.63;3.92;;;16.80;99.90;;;;;;4990701;28;20389;-85
2022/06/24 02:48:08;;;;;;;4.68;3.80;;;16.80;99.90;;;;;;4991678;28;20399;-86
2022/06/24 02:50:45;;;;;;;4.17;3.80;;;16.70;99.90;;;;;;4990083;28;20520;-84
2022/06/24 02:53:11;;;;;;;5.40;3.78;;;16.70;99.90;;;;;;4991587;28;20392;-85
2022/06/24 02:55:37;;;;;;;5.35;4.40;;;16.70;99.90;;;;;;4991429;28;20377;-85
2022/06/24 02:58:04;;;;;;;4.30;3.72;;;16.70;99.90;;;;;;4989309;28;20452;-85
2022/06/24 03:00:30;;;;;;;4.97;4.03;;;;;;;;;;4989783;28;20484;-84
2022/06/24 03:02:57;;;;;;;5.97;3.83;;;;;;;;;;4989829;28;20953;-84
2022/06/24 03:05:23;;;;;;;4.78;4.10;;;;;;;;;;4990339;28;20388;-84
2022/06/24 03:07:49;;;;;;;4.82;3.70;;;;;;;;;;4989852;28;20499;-85
2022/06/24 03:10:15;;;;;;;6.32;4.38;;;;;;;;;;4991745;28;20432;-85
2022/06/24 03:12:41;;;;;;;7.88;4.25;;;;;;;;;;5006646;28;20382;-84
2022/06/24 03:15:07;;;;;;;8.70;4.63;;;;;;;;;;4992466;28;20946;-84
2022/06/24 03:17:33;;;;;;;7.70;4.40;;;;;;;;;;5002311;28;20528;-84
2022/06/24 03:20:00;;;;;;;7.35;4.68;;;;;;;;;;4990049;28;20425;-83
2022/06/24 03:22:25;;;;;;;12.13;4.53;;;16.90;99.90;;;;;;4990018;28;20384;-85
2022/06/24 03:24:51;;;;;;;9.70;4.93;;;16.90;99.90;;;;;;4990655;28;21097;-85
2022/06/24 03:27:17;;;;;;;7.63;4.50;;;16.90;99.90;;;;;;4990513;28;20381;-85
2022/06/24 03:29:43;;;;;;;4.50;4.00;;;17.00;99.90;;;;;;4990206;28;20405;-85
2022/06/24 03:32:08;;;;;;;16.10;5.03;;;17.00;99.90;;;;;;4990123;28;20381;-85
2022/06/24 03:34:34;;;;;;;20.43;5.60;;;16.90;99.90;;;;;;4989825;28;20487;-85
2022/06/24 03:37:01;;;;;;;6.82;3.88;;;17.00;99.90;;;;;;4989170;28;20439;-85
2022/06/24 03:39:26;;;;;;;6.90;4.60;;;17.00;99.90;;;;;;4990838;28;20407;-85
2022/06/24 03:41:52;;;;;;;4.57;4.18;;;16.90;99.90;;;;;;5005802;28;20884;-88
2022/06/24 03:44:18;;;;;;;5.70;4.50;;;16.90;99.90;;;;;;5008697;28;20395;-86
2022/06/24 03:46:43;;;;;;;8.98;4.70;;;16.90;99.90;;;;;;5010444;28;20467;-86
2022/06/24 03:49:09;;;;;;;6.60;4.50;;;16.90;99.90;;;;;;5008093;28;20419;-85
2022/06/24 03:51:36;;;;;;;4.55;3.92;;;17.00;99.90;;;;;;5008827;28;20418;-86
2022/06/24 03:54:01;;;;;;;4.80;4.40;;;17.00;99.90;;;;;;5010580;28;20386;-87
2022/06/24 03:56:27;;;;;;;4.30;3.83;;;17.10;99.90;;;;;;5008620;28;20376;-85
2022/06/24 03:58:53;;;;;;;4.95;4.45;;;17.30;99.90;;;;;;5008516;28;20442;-85
2022/06/24 04:01:19;;;;;;;5.28;3.90;;;17.30;99.90;;;;;;5008440;28;20383;-85
2022/06/24 04:03:45;;;;;;;5.17;4.20;;;17.30;99.90;;;;;;5009753;28;20743;-85
2022/06/24 04:06:10;;;;;;;5.90;4.32;;;17.30;99.90;;;;;;5009976;28;20387;-85
2022/06/24 04:08:36;;;;;;;5.07;4.57;;;17.40;99.90;;;;;;5010204;28;20406;-86
2022/06/24 04:11:15;;;;;;;6.45;4.25;;;17.40;99.90;;;;;;5008896;28;20402;-85
2022/06/24 04:13:42;;;;;;;5.90;4.47;;;17.40;99.90;;;;;;5008774;28;20877;-86
2022/06/24 04:16:08;;;;;;;6.30;4.90;;;17.50;99.90;;;;;;5009598;28;20416;-84
2022/06/24 04:18:34;;;;;;;4.85;4.20;;;17.70;99.90;;;;;;5008238;28;20371;-85
2022/06/24 04:21:00;;;;;;;5.50;4.10;;;17.70;99.90;;;;;;5008589;28;20394;-84
2022/06/24 04:23:26;;;;;;;9.68;4.53;;;17.80;99.90;;;;;;5010777;28;20907;-84
2022/06/24 04:25:52;;;;;;;9.45;4.53;;;18.10;99.90;;;;;;5013138;28;20811;-86
2022/06/24 04:28:18;;;;;;;4.63;3.70;;;18.20;99.90;;;;;;5012966;28;20399;-87
2022/06/24 04:30:43;;;;;;;4.73;3.80;;;18.40;99.90;;;;;;5012345;28;20392;-86
2022/06/24 04:33:09;;;;;;;4.65;3.60;;;18.60;99.90;;;;;;5013132;28;20406;-84
2022/06/24 04:35:35;;;;;;;4.73;3.20;;;18.90;99.90;;;;;;5012616;28;20403;-84
2022/06/24 04:38:01;;;;;;;8.15;3.70;;;19.20;99.90;;;;;;5015095;28;20387;-84
2022/06/24 04:40:27;;;;;;;11.77;3.72;;;19.50;99.90;;;;;;5014233;28;20421;-86
2022/06/24 04:42:52;;;;;;;6.22;3.50;;;19.70;99.90;;;;;;5013581;28;20398;-84
2022/06/24 04:45:19;;;;;;;3.90;3.00;;;20.00;99.90;;;;;;5012152;28;21010;-86
2022/06/24 04:47:45;;;;;;;4.07;3.00;;;20.30;99.90;;;;;;5012198;28;20380;-86
2022/06/24 04:50:11;;;;;;;4.03;3.17;;;20.70;99.90;;;;;;5014701;28;20481;-87
2022/06/24 04:52:38;;;;;;;5.53;3.05;;;21.10;99.90;;;;;;5012694;28;20889;-84
2022/06/24 04:55:05;;;;;;;39.58;6.13;;;21.40;99.90;;;;;;5012389;28;20944;-85
2022/06/24 04:57:31;;;;;;;14.17;3.77;;;21.60;99.90;;;;;;5013700;28;20796;-86
2022/06/24 04:59:56;;;;;;;8.40;2.97;;;21.80;99.90;;;;;;5013350;28;20387;-85
2022/06/24 05:02:22;;;;;;;4.30;2.83;;;22.30;99.90;;;;;;5013317;28;20376;-88
2022/06/24 05:04:50;;;;;;;6.82;2.70;;;23.00;99.90;;;;;;5013361;28;20387;-84
2022/06/24 05:07:16;;;;;;;8.95;3.30;;;23.40;99.90;;;;;;5012323;28;20383;-87
2022/06/24 05:09:42;;;;;;;5.90;3.17;;;23.70;99.90;;;;;;5012428;28;20972;-86
2022/06/24 05:12:09;;;;;;;5.70;2.97;;;23.80;99.90;;;;;;5011489;28;20395;-86
2022/06/24 05:14:38;;;;;;;7.00;2.97;;;;;;;;;;5012421;28;20437;-84
2022/06/24 05:17:04;;;;;;;80.10;10.32;;;;;;;;;;5011781;28;20390;-84
2022/06/24 05:19:30;;;;;;;11.63;3.53;;;;;;;;;;5012081;28;20836;-84
2022/06/24 05:21:56;;;;;;;6.78;2.70;;;;;;;;;;5010938;28;20386;-84
2022/06/24 05:24:22;;;;;;;3.92;2.70;;;;;;;;;;5011623;28;20479;-85
2022/06/24 05:26:48;;;;;;;4.45;2.72;;;;;;;;;;5011365;28;20387;-85
2022/06/24 05:29:14;;;;;;;7.32;2.70;;;;;;;;;;5011115;28;20407;-86
2022/06/24 05:31:40;;;;;;;24.07;3.70;;;;;;;;;;5012221;28;20377;-86
2022/06/24 05:34:07;;;;;;;7.03;2.60;;;;;;;;;;5011045;28;20367;-86
2022/06/24 05:36:34;;;;;;;4.05;2.67;;;;;;;;;;5010659;28;20403;-86
2022/06/24 05:39:07;;;;;;;5.05;2.60;;;;;;;;;;5010947;28;20479;-85
2022/06/24 05:41:33;;;;;;;4.40;2.60;;;;;;;;;;5010608;28;20899;-86
2022/06/24 05:44:00;;;;;;;3.85;2.50;;;;;;;;;;5010744;28;20395;-87
2022/06/24 05:46:26;;;;;;;12.95;3.75;;;;;;;;;;5010972;28;20380;-84
2022/06/24 05:48:53;;;;;;;30.10;4.63;;;;;;;;;;5006604;28;20463;-85
2022/06/24 05:51:19;;;;;;;4.40;2.63;;;;;;;;;;5010140;28;20398;-88
2022/06/24 05:56:31;;;;;;;6.18;2.85;;;;;;;;;;4992393;28;20380;-84
2022/06/24 05:58:57;;;;;;;7.85;2.60;;;;;;;;;;4991165;28;20392;-85
2022/06/24 06:01:24;;;;;;;3.85;2.22;;;;;;;;;;4990712;28;20381;-88
2022/06/24 06:03:50;;;;;;;5.68;2.78;;;25.40;96.10;;;;;;4992175;28;20886;-87
2022/06/24 06:06:16;;;;;;;3.90;2.75;;;25.40;96.60;;;;;;4990495;28;20393;-87
2022/06/24 06:08:42;;;;;;;6.45;2.65;;;;;;;;;;4990665;28;20421;-86
2022/06/24 06:11:22;;;;;;;6.63;2.60;;;26.00;94.60;;;;;;4992364;28;20385;-83
2022/06/24 06:13:50;;;;;;;5.25;2.40;;;26.00;94.80;;;;;;4990016;28;20392;-85
2022/06/24 06:16:16;;;;;;;5.35;2.80;;;26.20;94.90;;;;;;4992703;28;20530;-84
2022/06/24 06:18:43;;;;;;;8.55;2.63;;;26.50;94.00;;;;;;4991269;28;20377;-84
2022/06/24 06:21:10;;;;;;;4.25;2.58;;;26.70;93.60;;;;;;4990512;28;20412;-86
2022/06/24 06:23:38;;;;;;;7.25;2.90;;;26.90;93.50;;;;;;4992163;28;20389;-86
2022/06/24 06:26:05;;;;;;;7.93;2.93;;;27.00;93.60;;;;;;4991489;28;20875;-85
2022/06/24 06:28:31;;;;;;;9.17;2.97;;;27.20;93.10;;;;;;4990920;28;20388;-88
2022/06/24 06:30:58;;;;;;;11.52;2.90;;;27.60;93.00;;;;;;4993093;28;20725;-86
2022/06/24 06:33:24;;;;;;;4.97;2.42;;;27.70;92.40;;;;;;4991241;28;20471;-84
2022/06/24 06:35:50;;;;;;;11.57;3.25;;;;;;;;;;4990260;28;20496;-87
2022/06/24 06:38:16;;;;;;;5.67;2.40;;;28.10;91.70;;;;;;4991414;28;20397;-87
2022/06/24 06:40:43;;;;;;;11.68;2.70;;;28.30;91.80;;;;;;4989543;28;20658;-87
2022/06/24 06:43:09;;;;;;;5.47;2.40;;;28.70;91.00;;;;;;4990847;28;20482;-87
2022/06/24 06:45:38;;;;;;;48.08;7.00;;;28.90;92.30;;;;;;4991458;28;20393;-86
2022/06/24 06:48:05;;;;;;;6.53;2.63;;;28.90;92.60;;;;;;4990998;28;20770;-87
2022/06/24 06:50:31;;;;;;;11.95;3.22;;;29.00;88.90;;;;;;4990224;28;20965;-84
2022/06/24 06:52:58;;;;;;;5.10;2.50;;;29.00;89.60;;;;;;4996998;28;20387;-87
2022/06/24 06:55:24;;;;;;;6.43;2.50;;;29.20;87.00;;;;;;4995231;28;20448;-85
2022/06/24 06:57:51;;;;;;;4.97;2.25;;;29.30;88.50;;;;;;5001524;28;20379;-88
2022/06/24 07:00:23;;;;;;;4.07;2.00;;;29.30;89.80;;;;;;5009452;28;20414;-86
2022/06/24 07:02:48;;;;;;;4.85;2.17;;;29.40;85.60;;;;;;5005095;28;20401;-84
2022/06/24 07:05:14;;;;;;;5.57;2.50;;;29.40;86.20;;;;;;5007924;28;20375;-85
2022/06/24 07:07:40;;;;;;;5.45;2.00;;;29.60;86.10;;;;;;5009470;28;20389;-86
2022/06/24 07:10:09;;;;;;;5.03;2.30;;;29.90;86.10;;;;;;4999101;28;20412;-87
2022/06/24 07:12:34;;;;;;;4.22;2.30;;;30.30;84.70;;;;;;5000073;28;20379;-85
2022/06/24 07:15:00;;;;;;;14.67;3.20;;;30.10;82.70;;;;;;5009604;28;20944;-89
2022/06/24 07:17:25;;;;;;;6.57;2.70;;;30.00;82.90;;;;;;4990054;28;20381;-88
2022/06/24 07:19:51;;;;;;;7.93;2.13;;;30.10;83.90;;;;;;4992027;28;20369;-86
2022/06/24 07:22:17;;;;;;;6.40;2.67;;;30.20;83.60;;;;;;4988461;28;20488;-85
2022/06/24 07:24:44;;;;;;;9.63;2.60;;;30.20;82.50;;;;;;4991391;28;20377;-87
2022/06/24 07:27:10;;;;;;;7.13;2.65;;;30.20;82.80;;;;;;5008909;28;20726;-86
2022/06/24 07:29:37;;;;;;;15.77;2.83;;;30.20;82.20;;;;;;5008700;28;20766;-88
2022/06/24 07:32:05;;;;;;;5.60;2.30;;;30.20;81.30;;;;;;5009754;28;20380;-86
2022/06/24 07:34:31;;;;;;;17.52;3.38;;;30.40;80.40;;;;;;5008024;28;20454;-86
2022/06/24 07:37:01;;;;;;;4.07;2.00;;;30.30;92.60;;;;;;5008701;28;20391;-87
2022/06/24 07:39:28;;;;;;;3.67;1.90;;;30.40;94.90;;;;;;5007950;28;20383;-87
2022/06/24 07:41:54;;;;;;;3.17;2.10;;;30.40;94.70;;;;;;5008768;28;20391;-87
2022/06/24 07:44:20;;;;;;;4.32;2.30;;;30.30;95.10;;;;;;5007711;28;20423;-87
2022/06/24 07:46:46;;;;;;;3.38;2.00;;;30.40;95.40;;;;;;5009394;28;20387;-86
2022/06/24 07:49:12;;;;;;;4.30;2.03;;;30.50;97.90;;;;;;5009476;28;20438;-85
2022/06/24 07:51:39;;;;;;;3.83;2.30;;;30.50;96.60;;;;;;5007867;28;20442;-87
2022/06/24 07:54:08;;;;;;;6.15;2.25;;;30.50;98.70;;;;;;5008506;28;20383;-86
2022/06/24 07:59:26;;;;;;;4.13;2.13;;;30.80;92.70;;;;;;5013708;28;20382;-86
2022/06/24 08:01:53;;;;;;;4.38;1.90;;;30.70;81.60;;;;;;4994399;28;20866;-85
2022/06/24 08:04:20;;;;;;;9.68;2.35;;;30.60;78.50;;;;;;5004007;28;21516;-86
2022/06/24 08:06:52;;;;;;;5.78;2.45;;;30.50;77.00;;;;;;5010236;28;20399;-86
2022/06/24 08:09:19;;;;;;;17.15;3.10;;;30.50;77.20;;;;;;5007263;28;20408;-86
2022/06/24 08:11:45;;;;;;;5.75;1.90;;;30.60;78.40;;;;;;4992520;28;20388;-85
2022/06/24 08:14:11;;;;;;;5.47;2.20;;;30.70;77.70;;;;;;4993831;28;20373;-85
2022/06/24 08:16:36;;;;;;;3.38;2.03;;;30.60;75.00;;;;;;4992917;28;20377;-87
2022/06/24 08:19:02;;;;;;;5.93;2.00;;;30.60;77.80;;;;;;4992051;28;20385;-87
2022/06/24 08:21:28;;;;;;;2.80;2.10;;;30.80;76.70;;;;;;4996992;28;20391;-86
2022/06/24 08:23:54;;;;;;;3.95;2.00;;;30.80;75.20;;;;;;4998426;28;20414;-85
2022/06/24 08:26:20;;;;;;;5.13;2.17;;;30.80;75.50;;;;;;4996241;28;20455;-87
2022/06/24 08:28:45;;;;;;;4.53;2.10;;;30.80;76.00;;;;;;4992140;28;20373;-85
2022/06/24 08:31:14;;;;;;;4.15;2.20;;;30.80;76.40;;;;;;5007049;28;20896;-85
2022/06/24 08:33:40;;;;;;;4.68;1.98;;;30.80;75.00;;;;;;5011512;28;20382;-86
2022/06/24 08:36:06;;;;;;;4.38;2.30;;;30.80;75.10;;;;;;5011319;28;20456;-86
2022/06/24 08:38:31;;;;;;;5.50;2.38;;;30.90;74.40;;;;;;5010565;28;20927;-86
2022/06/24 08:41:00;;;;;;;8.85;2.10;;;30.80;73.90;;;;;;5007914;28;20473;-87
2022/06/24 08:43:38;;;;;;;5.10;2.00;;;30.70;72.20;;;;;;5001091;28;20422;-88
2022/06/24 08:46:04;;;;;;;3.20;2.08;;;30.70;75.20;;;;;;5000635;28;20863;-84
2022/06/24 08:48:33;;;;;;;4.05;2.13;;;30.60;72.60;;;;;;5010649;28;20404;-88
2022/06/24 08:51:00;;;;;;;3.35;1.75;;;30.80;75.40;;;;;;5011165;28;20444;-86
2022/06/24 08:53:29;;;;;;;4.43;1.98;;;30.80;70.90;;;;;;5011118;28;20371;-86
2022/06/24 08:55:55;;;;;;;15.88;2.90;;;30.90;71.60;;;;;;5011078;28;20387;-86
2022/06/24 08:58:21;;;;;;;7.32;2.25;;;30.80;71.60;;;;;;4993982;28;20988;-88
2022/06/24 09:00:47;;;;;;;5.85;2.15;;;30.70;69.90;;;;;;4992040;28;20376;-87
2022/06/24 09:03:12;;;;;;;5.50;2.00;;;30.70;71.30;;;;;;4990276;28;21184;-87
2022/06/24 09:05:40;;;;;;;4.60;2.00;;;;;;;;;;4992272;28;20559;-86
2022/06/24 09:08:06;;;;;;;4.10;2.08;;;;;;;;;;4990482;28;20456;-85
2022/06/24 09:10:33;;;;;;;2.95;1.90;;;;;;;;;;4991874;28;20496;-86
2022/06/24 09:12:59;;;;;;;5.40;2.40;;;;;;;;;;4992548;28;20373;-87
2022/06/24 09:15:25;;;;;;;2.83;2.05;;;;;;;;;;4990775;28;20385;-86
2022/06/24 09:17:51;;;;;;;4.85;1.70;;;;;;;;;;4990944;28;20472;-85
2022/06/24 09:20:25;;;;;;;5.33;2.07;;;;;;;;;;4991892;28;20460;-85
2022/06/24 09:23:01;;;;;;;4.93;1.90;;;;;;;;;;4990511;28;20410;-85
2022/06/24 09:25:27;;;;;;;3.83;1.95;;;;;;;;;;4999583;28;20483;-87
2022/06/24 09:27:53;;;;;;;4.32;2.10;;;32.10;68.40;;;;;;5001690;28;20527;-84
2022/06/24 09:30:19;;;;;;;5.07;2.30;;;31.80;68.10;;;;;;5000976;28;20476;-86
2022/06/24 09:32:52;;;;;;;4.88;2.05;;;31.70;70.20;;;;;;4999405;28;20389;-87
2022/06/24 09:35:18;;;;;;;12.75;2.53;;;31.60;69.70;;;;;;5000842;28;20380;-88
2022/06/24 09:37:50;;;;;;;4.97;2.13;;;31.60;71.60;;;;;;4997158;28;20403;-88
2022/06/24 09:40:15;;;;;;;107.63;11.07;;;31.80;70.00;;;;;;4999325;28;20400;-87
2022/06/24 09:42:41;;;;;;;11.87;2.60;;;31.80;70.70;;;;;;4999828;28;20391;-89
2022/06/24 09:45:08;;;;;;;5.38;2.30;;;31.90;71.10;;;;;;4996892;28;20811;-85
2022/06/24 09:47:40;;;;;;;3.42;2.13;;;32.00;70.70;;;;;;5001263;28;21215;-85
2022/06/24 09:50:06;;;;;;;7.82;2.25;;;31.80;69.20;;;;;;5008667;28;20602;-86
2022/06/24 09:52:32;;;;;;;5.57;2.33;;;31.70;68.20;;;;;;4998528;28;20513;-87
2022/06/24 09:55:01;;;;;;;3.63;2.40;;;31.50;69.30;;;;;;5010561;28;20382;-85
2022/06/24 09:57:28;;;;;;;9.07;2.83;;;31.60;69.00;;;;;;5010792;28;20877;-86
2022/06/24 10:02:39;;;;;;;6.03;2.47;;;31.40;68.30;;;;;;5011362;28;20441;-86
2022/06/24 10:05:09;;;;;;;4.15;2.15;;;31.30;68.00;;;;;;5000472;28;20405;-85
2022/06/24 10:07:36;;;;;;;3.92;2.20;;;31.40;69.30;;;;;;4990350;28;20413;-87
2022/06/24 10:10:04;;;;;;;8.83;2.47;;;31.30;69.90;;;;;;4991389;28;20407;-87
2022/06/24 10:12:34;;;;;;;4.15;2.20;;;31.50;68.60;;;;;;4990132;28;20393;-86
2022/06/24 10:15:00;;;;;;;4.30;2.20;;;31.60;67.40;;;;;;4992239;28;20939;-89
2022/06/24 10:17:28;;;;;;;3.10;2.20;;;31.60;68.00;;;;;;5009971;28;20399;-87
2022/06/24 10:19:58;;;;;;;6.15;2.60;;;31.80;67.90;;;;;;5002906;28;20387;-87
2022/06/24 10:22:37;;;;;;;5.60;2.15;;;31.80;68.10;;;;;;4989741;28;20484;-87
2022/06/24 10:25:04;;;;;;;5.63;2.65;;;31.80;67.00;;;;;;4989591;28;20444;-86
2022/06/24 10:28:00;;;;;;;18.08;3.15;;;31.90;65.50;;;;;;4990182;28;20477;-87
2022/06/24 10:30:56;;;;;;;5.63;2.60;;;31.80;67.10;;;;;;4992089;28;20407;-86
2022/06/24 10:33:25;;;;;;;17.58;3.63;;;31.90;66.60;;;;;;4997532;28;20424;-88
2022/06/24 10:35:56;;;;;;;72.82;9.57;;;31.90;66.30;;;;;;4997458;28;20435;-87
2022/06/24 10:38:23;;;;;;;2.53;1.80;;;31.90;65.70;;;;;;4998830;28;20383;-84
2022/06/24 10:40:50;;;;;;;21.95;3.10;;;31.80;65.30;;;;;;5001551;28;20389;-86
2022/06/24 10:43:36;;;;;;;7.80;2.13;;;31.50;64.90;;;;;;4998597;28;20425;-84
2022/06/24 10:46:13;;;;;;;14.55;3.17;;;31.40;64.70;;;;;;4997477;28;20402;-84
2022/06/24 10:48:51;;;;;;;7.25;2.03;;;31.40;66.40;;;;;;4997348;28;20390;-84
2022/06/24 10:51:19;;;;;;;3.60;2.00;;;31.40;66.80;;;;;;4998242;28;20391;-85
2022/06/24 10:54:02;;;;;;;4.38;2.08;;;31.40;65.80;;;;;;4998819;28;20405;-84
2022/06/24 10:56:44;;;;;;;3.22;2.28;;;31.60;67.30;;;;;;4995995;28;20410;-85
2022/06/24 10:59:12;;;;;;;3.30;2.00;;;31.80;66.30;;;;;;4996133;28;21043;-85
2022/06/24 11:01:43;;;;;;;6.05;2.35;;;31.80;66.40;;;;;;4998808;28;20738;-85
2022/06/24 11:04:12;;;;;;;4.47;2.00;;;31.80;67.40;;;;;;5000048;28;20391;-83
2022/06/24 11:06:38;;;;;;;3.40;1.80;;;32.00;64.30;;;;;;4997490;28;20388;-86
2022/06/24 11:09:08;;;;;;;6.13;1.97;;;32.10;65.90;;;;;;4999254;28;20813;-86
2022/06/24 11:11:35;;;;;;;3.70;1.80;;;32.00;64.60;;;;;;4999233;28;20897;-85
2022/06/24 11:14:25;;;;;;;4.88;1.88;;;31.90;63.30;;;;;;4998297;28;20390;-86
2022/06/24 11:16:51;;;;;;;5.73;2.00;;;31.70;64.00;;;;;;4997674;28;20400;-83
2022/06/24 11:19:18;;;;;;;3.63;1.98;;;31.60;64.70;;;;;;5000657;28;20383;-86
2022/06/24 11:21:51;;;;;;;2.87;2.10;;;31.60;64.90;;;;;;4999893;28;20389;-85
2022/06/24 11:24:19;;;;;;;4.13;1.80;;;31.60;64.60;;;;;;4996972;28;20895;-85
2022/06/24 11:27:03;;;;;;;5.32;1.95;;;31.60;65.40;;;;;;4999388;28;20758;-87
2022/06/24 11:29:51;;;;;;;4.68;2.20;;;31.60;63.30;;;;;;4998292;28;20602;-84
2022/06/24 11:32:18;;;;;;;5.07;1.85;;;31.60;64.20;;;;;;5018332;28;20408;-85
2022/06/24 11:34:44;;;;;;;4.30;1.85;;;31.40;64.10;;;;;;4989419;28;20381;-86
2022/06/24 11:37:11;;;;;;;19.10;3.60;;;31.40;66.00;;;;;;5006612;28;20383;-85
2022/06/24 11:39:37;;;;;;;4.78;2.15;;;31.40;65.80;;;;;;5002296;28;20444;-87
2022/06/24 11:42:03;;;;;;;4.35;2.25;;;31.40;64.70;;;;;;4985760;28;20479;-85
2022/06/24 11:44:51;;;;;;;5.83;2.17;;;31.20;65.20;;;;;;4988834;28;20392;-85
2022/06/24 11:47:31;;;;;;;3.85;2.05;;;31.20;65.30;;;;;;4985231;28;20606;-85
2022/06/24 11:49:57;;;;;;;29.05;4.35;;;31.30;66.70;;;;;;4984249;28;20420;-84
2022/06/24 11:52:22;;;;;;;7.80;2.53;;;31.40;65.60;;;;;;4985138;28;20452;-86
2022/06/24 11:54:48;;;;;;;45.88;6.07;;;31.50;64.00;;;;;;4984853;28;20423;-87
2022/06/24 11:57:14;;;;;;;4.88;1.98;;;31.50;65.40;;;;;;4989911;28;20886;-83
2022/06/24 11:59:39;;;;;;;3.67;1.93;;;31.70;65.20;;;;;;4988876;28;20480;-85
2022/06/24 12:02:08;;;;;;;6.60;2.30;;;31.70;64.60;;;;;;4988091;28;20384;-86
2022/06/24 12:04:35;;;;;;;5.05;2.10;;;31.80;65.20;;;;;;4988273;28;20883;-87
2022/06/24 12:07:06;;;;;;;3.97;1.90;;;32.10;65.90;;;;;;4988498;28;20424;-86
2022/06/24 12:09:33;;;;;;;7.28;2.58;;;32.20;65.60;;;;;;4987010;28;20937;-86
2022/06/24 12:12:11;;;;;;;4.30;2.08;;;32.40;62.30;;;;;;4988094;28;20393;-86
2022/06/24 12:14:37;;;;;;;4.50;1.90;;;32.20;63.20;;;;;;4987801;28;20381;-85
2022/06/24 12:17:08;;;;;;;4.03;2.10;;;32.30;61.10;;;;;;4989248;28;20381;-87
2022/06/24 12:19:54;;;;;;;6.45;2.42;;;32.50;62.40;;;;;;4989562;28;20392;-88
2022/06/24 12:22:20;;;;;;;10.60;2.15;;;32.60;63.60;;;;;;4988516;28;20924;-86
2022/06/24 12:25:00;;;;;;;3.63;1.87;;;32.80;61.90;;;;;;4988932;28;20479;-87
2022/06/24 12:27:38;;;;;;;25.13;4.15;;;32.90;61.30;;;;;;4987783;28;20403;-87
2022/06/24 12:30:18;;;;;;;5.13;1.80;;;33.00;60.80;;;;;;4987211;28;20444;-88
2022/06/24 12:33:00;;;;;;;4.97;2.30;;;33.30;61.10;;;;;;4989171;28;20389;-86
2022/06/24 12:35:37;;;;;;;4.65;1.98;;;33.30;59.40;;;;;;4987394;28;20447;-83
2022/06/24 12:38:04;;;;;;;7.68;2.38;;;33.20;59.20;;;;;;4987997;28;20392;-87
2022/06/24 12:40:30;;;;;;;8.32;2.90;;;33.30;60.20;;;;;;4988075;28;20401;-87
2022/06/24 12:43:11;;;;;;;3.43;1.93;;;33.30;59.00;;;;;;4989225;28;20838;-87
2022/06/24 12:45:39;;;;;;;18.48;3.53;;;33.30;59.90;;;;;;4990009;28;20393;-86
2022/06/24 12:51:01;;;;;;;6.33;2.30;;;33.10;59.60;;;;;;4989753;28;20423;-87
2022/06/24 12:53:27;;;;;;;4.10;2.30;;;33.00;60.00;;;;;;4991249;28;20455;-86
2022/06/24 12:55:53;;;;;;;4.78;2.20;;;33.10;59.80;;;;;;4992271;28;20428;-86
2022/06/24 12:58:19;;;;;;;4.55;2.17;;;33.20;60.70;;;;;;4991416;28;20468;-84
2022/06/24 13:00:48;;;;;;;68.88;9.07;;;33.30;59.30;;;;;;4991599;28;20496;-87
2022/06/24 13:03:23;;;;;;;7.35;2.20;;;33.50;59.30;;;;;;4991103;28;20385;-87
2022/06/24 13:05:49;;;;;;;8.73;2.38;;;33.50;59.70;;;;;;4991225;28;20385;-85
2022/06/24 13:08:15;;;;;;;59.40;8.27;;;33.20;59.90;;;;;;4991793;28;20393;-86
2022/06/24 13:10:41;;;;;;;72.80;9.10;;;33.00;59.00;;;;;;4991877;28;20440;-86
2022/06/24 13:13:07;;;;;;;10.63;2.10;;;33.00;60.40;;;;;;4993650;28;20381;-86
2022/06/24 13:15:34;;;;;;;8.15;2.50;;;33.00;59.80;;;;;;4992823;28;20385;-87